createdAt,value
2023-04-01T00:01:24.991Z,95601.34
2023-04-01T00:03:55.264Z,95601.69
2023-04-01T00:06:24.415Z,95592.72
2023-04-01T00:08:53.613Z,95601.69
2023-04-01T00:11:24.543Z,95585.47
2023-04-01T00:13:52.826Z,95593.78
2023-04-01T00:16:22.562Z,95592.97
2023-04-01T00:18:54.117Z,95587.19
2023-04-01T00:21:24.001Z,95597.97
2023-04-01T00:23:53.143Z,95583.34
2023-04-01T00:26:22.983Z,95599.56
2023-04-01T00:28:52.101Z,95587.75
2023-04-01T00:31:22.872Z,95580.75
2023-04-01T00:33:51.670Z,95594.56
2023-04-01T00:36:24.224Z,95586.19
2023-04-01T00:38:53.309Z,95583.69
2023-04-01T00:41:22.761Z,95593.56
2023-04-01T00:43:53.761Z,95584.34
2023-04-01T00:46:23.509Z,95593.44
2023-04-01T00:48:57.329Z,95592.41
2023-04-01T00:51:31.886Z,95590.59
2023-04-01T00:54:04.759Z,95589.38
2023-04-01T00:56:38.291Z,95585.75
2023-04-01T00:59:13.808Z,95585.06
2023-04-01T01:01:42.840Z,95578.34
2023-04-01T01:04:25.583Z,95571.34
2023-04-01T01:07:12.123Z,95570.53
2023-04-01T01:09:54.254Z,95573.63
2023-04-01T01:12:32.519Z,95583.34
2023-04-01T01:15:14.322Z,95573.81
2023-04-01T01:17:59.387Z,95576.44
2023-04-01T01:21:05.967Z,95576.22
2023-04-01T01:24:10.545Z,95574.84
2023-04-01T01:27:04.366Z,95563.06
2023-04-01T01:30:18.624Z,95569.19
2023-04-01T01:33:17.392Z,95564.75
2023-04-01T01:35:52.766Z,95563.41
2023-04-01T01:38:28.646Z,95560.22
2023-04-01T01:41:10.059Z,95559.41
2023-04-01T01:43:45.173Z,95554.78
2023-04-01T01:46:23.401Z,95541.66
2023-04-01T01:48:54.669Z,95548.09
2023-04-01T01:51:26.397Z,95543.31
2023-04-01T01:53:55.392Z,95546.28
2023-04-01T01:56:29.960Z,95544.91
2023-04-01T01:59:04.790Z,95549.22
2023-04-01T02:01:39.512Z,95543.31
2023-04-01T02:04:17.226Z,95553.19
2023-04-01T02:06:55.412Z,95551.94
2023-04-01T02:09:24.250Z,95552.84
2023-04-01T02:11:58.488Z,95555.56
2023-04-01T02:14:33.110Z,95550.25
2023-04-01T02:17:09.338Z,95546.84
2023-04-01T02:19:44.067Z,95560.22
2023-04-01T02:22:22.176Z,95553.41
2023-04-01T02:24:54.798Z,95563.94
2023-04-01T02:27:23.776Z,95565.66
2023-04-01T02:29:53.000Z,95563.16
2023-04-01T02:32:23.086Z,95562.38
2023-04-01T02:34:52.633Z,95565.31
2023-04-01T02:37:22.973Z,95583.53
2023-04-01T02:39:51.837Z,95571.56
2023-04-01T02:42:20.568Z,95574.63
2023-04-01T02:44:49.428Z,95575.06
2023-04-01T02:47:18.182Z,95582.31
2023-04-01T02:49:46.652Z,95589.00
2023-04-01T02:52:15.147Z,95569.19
2023-04-01T02:54:44.968Z,95583.31
2023-04-01T02:57:13.622Z,95586.25
2023-04-01T02:59:42.465Z,95589.47
2023-04-01T03:02:11.289Z,95585.16
2023-04-01T03:04:40.518Z,95592.50
2023-04-01T03:07:09.600Z,95589.56
2023-04-01T03:09:38.813Z,95596.34
2023-04-01T03:12:09.297Z,95601.75
2023-04-01T03:14:48.510Z,95604.91
2023-04-01T03:17:17.260Z,95603.53
2023-04-01T03:19:45.698Z,95607.84
2023-04-01T03:22:14.645Z,95602.97
2023-04-01T03:24:43.301Z,95605.34
2023-04-01T03:27:13.077Z,95600.59
2023-04-01T03:29:41.726Z,95610.34
2023-04-01T03:32:11.383Z,95603.44
2023-04-01T03:34:40.164Z,95603.13
2023-04-01T03:37:10.861Z,95611.28
2023-04-01T03:39:39.452Z,95608.22
2023-04-01T03:42:08.657Z,95614.91
2023-04-01T03:44:39.196Z,95616.50
2023-04-01T03:47:12.551Z,95629.41
2023-04-01T03:49:41.485Z,95620.13
2023-04-01T03:52:12.789Z,95632.59
2023-04-01T03:54:42.092Z,95631.91
2023-04-01T03:57:10.724Z,95639.84
2023-04-01T03:59:41.052Z,95631.66
2023-04-01T04:02:10.674Z,95633.41
2023-04-01T04:04:40.010Z,95629.03
2023-04-01T04:07:09.204Z,95631.50
2023-04-01T04:09:57.549Z,95629.91
2023-04-01T04:12:26.016Z,95630.25
2023-04-01T04:14:57.299Z,95629.13
2023-04-01T04:17:26.121Z,95618.25
2023-04-01T04:19:55.606Z,95627.97
2023-04-01T04:22:24.434Z,95631.97
2023-04-01T04:24:52.906Z,95628.59
2023-04-01T04:27:22.306Z,95632.91
2023-04-01T04:30:01.678Z,95632.41
2023-04-01T04:32:32.353Z,95629.59
2023-04-01T04:35:01.044Z,95642.06
2023-04-01T04:37:29.948Z,95634.34
2023-04-01T04:39:58.703Z,95635.41
2023-04-01T04:42:27.439Z,95641.34
2023-04-01T04:45:04.009Z,95636.63
2023-04-01T04:47:33.381Z,95635.03
2023-04-01T04:50:01.840Z,95641.84
2023-04-01T04:52:30.904Z,95637.19
2023-04-01T04:54:59.728Z,95639.78
2023-04-01T04:57:28.285Z,95635.91
2023-04-01T04:59:57.759Z,95643.41
2023-04-01T05:02:55.731Z,95647.59
2023-04-01T05:05:24.465Z,95643.75
2023-04-01T05:07:53.008Z,95643.28
2023-04-01T05:10:23.009Z,95644.06
2023-04-01T05:12:51.731Z,95650.66
2023-04-01T05:15:24.384Z,95635.25
2023-04-01T05:17:54.276Z,95649.00
2023-04-01T05:20:34.854Z,95650.44
2023-04-01T05:23:04.008Z,95647.59
2023-04-01T05:25:32.903Z,95640.69
2023-04-01T05:28:02.653Z,95641.63
2023-04-01T05:30:31.531Z,95637.78
2023-04-01T05:33:05.121Z,95632.00
2023-04-01T05:35:34.016Z,95644.34
2023-04-01T05:38:03.220Z,95641.19
2023-04-01T05:40:32.234Z,95647.09
2023-04-01T05:43:01.552Z,95648.94
2023-04-01T05:45:31.038Z,95634.53
2023-04-01T05:48:16.394Z,95638.69
2023-04-01T05:50:45.241Z,95638.03
2023-04-01T05:53:14.342Z,95640.63
2023-04-01T05:55:45.603Z,95639.75
2023-04-01T05:58:16.183Z,95645.84
2023-04-01T06:00:56.061Z,95650.97
2023-04-01T06:03:32.564Z,95649.84
2023-04-01T06:06:02.120Z,95668.88
2023-04-01T06:08:33.092Z,95654.94
2023-04-01T06:11:15.898Z,95649.50
2023-04-01T06:14:09.103Z,95658.59
2023-04-01T06:16:59.736Z,95661.09
2023-04-01T06:19:38.704Z,95653.72
2023-04-01T06:22:46.460Z,95652.38
2023-04-01T06:25:44.449Z,95653.84
2023-04-01T06:29:06.829Z,95651.16
2023-04-01T06:32:03.402Z,95647.97
2023-04-01T06:35:17.637Z,95664.19
2023-04-01T06:38:25.014Z,95661.34
2023-04-01T06:41:19.520Z,95657.59
2023-04-01T06:44:07.370Z,95656.25
2023-04-01T06:47:01.305Z,95649.56
2023-04-01T06:50:04.021Z,95657.16
2023-04-01T06:53:22.066Z,95644.72
2023-04-01T06:56:13.766Z,95652.75
2023-04-01T06:58:48.971Z,95652.31
2023-04-01T07:01:26.814Z,95657.97
2023-04-01T07:04:03.213Z,95646.50
2023-04-01T07:06:43.766Z,95648.53
2023-04-01T07:09:19.621Z,95651.81
2023-04-01T07:12:21.929Z,95644.31
2023-04-01T07:15:21.042Z,95649.28
2023-04-01T07:17:59.289Z,95643.72
2023-04-01T07:20:33.105Z,95651.00
2023-04-01T07:23:13.127Z,95646.88
2023-04-01T07:26:18.187Z,95643.91
2023-04-01T07:29:12.324Z,95636.59
2023-04-01T07:32:30.334Z,95643.44
2023-04-01T07:35:27.116Z,95643.94
2023-04-01T07:38:16.535Z,95641.06
2023-04-01T07:41:03.293Z,95642.50
2023-04-01T07:43:58.334Z,95638.72
2023-04-01T07:46:55.794Z,95644.88
2023-04-01T07:49:35.460Z,95643.19
2023-04-01T07:52:11.221Z,95652.81
2023-04-01T07:54:53.152Z,95652.09
2023-04-01T07:57:32.345Z,95652.81
2023-04-01T08:00:13.381Z,95656.16
2023-04-01T08:03:36.524Z,95657.56
2023-04-01T08:06:21.746Z,95643.53
2023-04-01T08:09:06.439Z,95650.13
2023-04-01T08:12:13.365Z,95649.94
2023-04-01T08:15:18.669Z,95656.34
2023-04-01T08:18:07.012Z,95643.81
2023-04-01T08:20:47.366Z,95643.38
2023-04-01T08:23:20.596Z,95652.09
2023-04-01T08:25:56.012Z,95644.88
2023-04-01T08:28:37.178Z,95671.22
2023-04-01T08:31:14.640Z,95641.19
2023-04-01T08:33:49.506Z,95655.03
2023-04-01T08:36:24.607Z,95642.16
2023-04-01T08:39:11.759Z,95666.97
2023-04-01T08:42:20.552Z,95637.56
2023-04-01T08:45:23.961Z,95650.09
2023-04-01T08:48:38.752Z,95636.53
2023-04-01T08:51:58.239Z,95636.16
2023-04-01T08:55:04.977Z,95647.38
2023-04-01T08:58:21.445Z,95645.59
2023-04-01T09:01:24.012Z,95635.97
2023-04-01T09:04:27.744Z,95649.63
2023-04-01T09:07:25.231Z,95644.44
2023-04-01T09:10:26.328Z,95648.34
2023-04-01T09:13:31.672Z,95643.19
2023-04-01T09:16:23.833Z,95647.72
2023-04-01T09:19:22.499Z,95639.16
2023-04-01T09:22:20.266Z,95650.78
2023-04-01T09:25:26.582Z,95648.34
2023-04-01T09:28:04.562Z,95650.59
2023-04-01T09:31:14.743Z,95653.88
2023-04-01T09:34:40.657Z,95643.66
2023-04-01T09:37:24.034Z,95641.91
2023-04-01T09:40:19.217Z,95646.19
2023-04-01T09:43:27.342Z,95647.09
2023-04-01T09:46:18.737Z,95676.41
2023-04-01T09:50:06.314Z,95643.66
2023-04-01T09:52:47.081Z,95640.75
2023-04-01T09:56:04.601Z,95632.91
2023-04-01T09:59:19.536Z,95638.81
2023-04-01T10:03:22.495Z,95636.25
2023-04-01T10:06:33.718Z,95632.75
2023-04-01T10:09:52.084Z,95629.75
2023-04-01T10:12:58.411Z,95631.41
2023-04-01T10:16:15.504Z,95636.69
2023-04-01T10:19:23.628Z,95629.03
2023-04-01T10:22:29.367Z,95623.44
2023-04-01T10:28:39.043Z,95614.91
2023-04-01T10:32:05.433Z,95620.13
2023-04-01T10:36:59.046Z,95632.66
2023-04-01T10:40:29.207Z,95628.41
2023-04-01T10:44:02.680Z,95630.78
2023-04-01T10:47:21.434Z,95623.31
2023-04-01T10:50:26.824Z,95644.69
2023-04-01T10:53:44.923Z,95646.66
2023-04-01T10:56:49.596Z,95641.19
2023-04-01T11:00:20.824Z,95639.22
2023-04-01T11:04:13.597Z,95643.75
2023-04-01T11:08:04.937Z,95645.84
2023-04-01T11:11:31.650Z,95645.63
2023-04-01T11:14:37.670Z,95637.25
2023-04-01T11:18:06.372Z,95643.94
2023-04-01T11:21:49.859Z,95642.03
2023-04-01T11:25:02.797Z,95652.94
2023-04-01T11:28:07.696Z,95648.97
2023-04-01T11:31:13.996Z,95649.22
2023-04-01T11:33:54.421Z,95655.78
2023-04-01T11:36:41.374Z,95645.00
2023-04-01T11:39:26.790Z,95645.09
2023-04-01T11:42:21.719Z,95649.41
2023-04-01T11:45:14.422Z,95645.66
2023-04-01T11:48:16.418Z,95638.63
2023-04-01T11:51:07.371Z,95639.56
2023-04-01T11:53:51.636Z,95655.69
2023-04-01T11:56:49.217Z,95667.72
2023-04-01T12:00:13.100Z,95647.03
2023-04-01T12:03:03.189Z,95654.19
2023-04-01T12:05:49.191Z,95651.03
2023-04-01T12:08:36.167Z,95659.09
2023-04-01T12:11:20.065Z,95657.88
2023-04-01T12:13:58.233Z,95659.00
2023-04-01T12:16:55.189Z,95665.13
2023-04-01T12:19:38.608Z,95661.38
2023-04-01T12:22:46.554Z,95659.44
2023-04-01T12:25:41.153Z,95664.44
2023-04-01T12:28:26.955Z,95670.81
2023-04-01T12:31:21.520Z,95662.41
2023-04-01T12:34:40.377Z,95664.44
2023-04-01T12:37:19.877Z,95674.84
2023-04-01T12:40:08.316Z,95664.09
2023-04-01T12:43:03.213Z,95662.81
2023-04-01T12:45:34.708Z,95661.00
2023-04-01T12:48:41.323Z,95668.19
2023-04-01T12:52:00.625Z,95658.66
2023-04-01T12:55:11.458Z,95656.84
2023-04-01T12:58:24.155Z,95665.38
2023-04-01T13:01:21.776Z,95663.91
2023-04-01T13:04:34.428Z,95650.16
2023-04-01T13:07:40.493Z,95662.31
2023-04-01T13:10:29.752Z,95674.38
2023-04-01T13:13:47.771Z,95664.34
2023-04-01T13:16:25.147Z,95657.44
2023-04-01T13:19:05.867Z,95672.63
2023-04-01T13:21:52.916Z,95664.78
2023-04-01T13:24:47.039Z,95678.56
2023-04-01T13:27:25.282Z,95675.94
2023-04-01T13:30:11.312Z,95681.47
2023-04-01T13:32:49.373Z,95669.41
2023-04-01T13:35:43.150Z,95688.28
2023-04-01T13:38:42.731Z,95679.06
2023-04-01T13:41:30.098Z,95680.13
2023-04-01T13:44:09.012Z,95703.13
2023-04-01T13:47:26.900Z,95687.00
2023-04-01T13:50:34.729Z,95678.97
2023-04-01T13:53:37.102Z,95682.69
2023-04-01T13:56:23.668Z,95688.97
2023-04-01T13:59:32.013Z,95686.66
2023-04-01T14:02:26.935Z,95678.53
2023-04-01T14:05:43.199Z,95693.91
2023-04-01T14:08:38.091Z,95680.16
2023-04-01T14:11:24.029Z,95678.28
2023-04-01T14:14:13.838Z,95682.28
2023-04-01T14:17:20.100Z,95684.06
2023-04-01T14:20:24.362Z,95678.53
2023-04-01T14:23:31.159Z,95671.66
2023-04-01T14:26:24.259Z,95673.06
2023-04-01T14:29:05.835Z,95681.81
2023-04-01T14:31:56.112Z,95684.97
2023-04-01T14:34:41.641Z,95687.06
2023-04-01T14:37:33.657Z,95680.63
2023-04-01T14:40:28.509Z,95685.16
2023-04-01T14:43:27.087Z,95683.53
2023-04-01T14:46:35.948Z,95692.69
2023-04-01T14:49:20.112Z,95680.47
2023-04-01T14:51:49.191Z,95680.47
2023-04-01T14:54:24.590Z,95683.63
2023-04-01T14:57:12.173Z,95688.91
2023-04-01T14:59:53.970Z,95690.59
2023-04-01T15:02:46.129Z,95694.56
2023-04-01T15:05:34.985Z,95687.75
2023-04-01T15:08:13.619Z,95690.06
2023-04-01T15:11:35.410Z,95694.63
2023-04-01T15:14:27.257Z,95696.53
2023-04-01T15:17:22.047Z,95701.75
2023-04-01T15:20:15.909Z,95695.75
2023-04-01T15:23:10.222Z,95700.13
2023-04-01T15:26:03.882Z,95706.97
2023-04-01T15:28:44.218Z,95708.34
2023-04-01T15:31:26.210Z,95705.56
2023-04-01T15:34:24.432Z,95706.34
2023-04-01T15:37:02.114Z,95718.75
2023-04-01T15:39:56.440Z,95716.97
2023-04-01T15:42:57.328Z,95717.94
2023-04-01T15:45:44.125Z,95720.41
2023-04-01T15:48:48.952Z,95720.66
2023-04-01T15:51:57.420Z,95731.03
2023-04-01T15:55:02.063Z,95734.00
2023-04-01T15:57:43.008Z,95729.94
2023-04-01T16:00:33.060Z,95729.16
2023-04-01T16:03:33.113Z,95730.19
2023-04-01T16:06:34.598Z,95732.56
2023-04-01T16:09:28.241Z,95733.59
2023-04-01T16:12:08.757Z,95740.06
2023-04-01T16:14:54.535Z,95729.41
2023-04-01T16:18:05.712Z,95743.63
2023-04-01T16:20:54.944Z,95741.34
2023-04-01T16:23:38.316Z,95744.53
2023-04-01T16:26:17.860Z,95742.25
2023-04-01T16:28:57.305Z,95741.56
2023-04-01T16:31:37.978Z,95747.03
2023-04-01T16:34:18.654Z,95747.03
2023-04-01T16:36:52.498Z,95754.28
2023-04-01T16:39:32.804Z,95740.22
2023-04-01T16:42:22.531Z,95748.16
2023-04-01T16:44:57.847Z,95754.72
2023-04-01T16:47:32.555Z,95753.69
2023-04-01T16:50:12.385Z,95760.28
2023-04-01T16:53:00.986Z,95758.38
2023-04-01T16:55:46.970Z,95755.75
2023-04-01T16:58:27.306Z,95773.91
2023-04-01T17:01:04.938Z,95778.81
2023-04-01T17:03:42.453Z,95776.41
2023-04-01T17:06:33.717Z,95768.47
2023-04-01T17:09:29.683Z,95771.53
2023-04-01T17:12:09.967Z,95777.09
2023-04-01T17:14:54.305Z,95777.31
2023-04-01T17:17:44.767Z,95784.38
2023-04-01T17:20:32.086Z,95785.84
2023-04-01T17:23:14.027Z,95789.81
2023-04-01T17:26:09.816Z,95782.66
2023-04-01T17:28:51.898Z,95782.78
2023-04-01T17:31:41.135Z,95796.31
2023-04-01T17:34:34.814Z,95793.09
2023-04-01T17:37:31.155Z,95794.94
2023-04-01T17:40:22.981Z,95799.22
2023-04-01T17:43:03.316Z,95785.16
2023-04-01T17:45:42.821Z,95797.41
2023-04-01T17:48:29.194Z,95803.19
2023-04-01T17:51:26.944Z,95804.34
2023-04-01T17:54:18.393Z,95807.72
2023-04-01T17:57:04.347Z,95805.78
2023-04-01T17:59:40.387Z,95808.06
2023-04-01T18:02:27.917Z,95810.78
2023-04-01T18:05:29.661Z,95811.78
2023-04-01T18:08:17.464Z,95821.56
2023-04-01T18:11:02.291Z,95821.22
2023-04-01T18:14:31.652Z,95822.00
2023-04-01T18:17:25.969Z,95826.34
2023-04-01T18:20:21.972Z,95829.97
2023-04-01T18:22:59.652Z,95827.25
2023-04-01T18:25:38.418Z,95838.72
2023-04-01T18:28:34.508Z,95836.53
2023-04-01T18:31:13.685Z,95838.00
2023-04-01T18:34:01.729Z,95847.41
2023-04-01T18:36:46.720Z,95846.97
2023-04-01T18:39:25.529Z,95853.91
2023-04-01T18:42:06.956Z,95854.13
2023-04-01T18:44:48.122Z,95852.69
2023-04-01T18:47:31.313Z,95866.41
2023-04-01T18:50:16.125Z,95859.81
2023-04-01T18:52:51.331Z,95864.03
2023-04-01T18:55:37.650Z,95876.38
2023-04-01T18:58:26.932Z,95878.63
2023-04-01T19:01:13.836Z,95881.25
2023-04-01T19:03:58.737Z,95882.25
2023-04-01T19:06:32.603Z,95879.66
2023-04-01T19:09:21.343Z,95893.25
2023-04-01T19:12:29.824Z,95890.75
2023-04-01T19:15:28.887Z,95898.81
2023-04-01T19:18:23.511Z,95902.19
2023-04-01T19:21:01.955Z,95907.63
2023-04-01T19:24:09.467Z,95907.31
2023-04-01T19:26:46.384Z,95907.75
2023-04-01T19:29:39.015Z,95913.31
2023-04-01T19:32:23.689Z,95904.69
2023-04-01T19:35:08.361Z,95906.84
2023-04-01T19:37:43.132Z,95914.69
2023-04-01T19:40:36.959Z,95912.41
2023-04-01T19:43:25.328Z,95915.59
2023-04-01T19:46:09.878Z,95909.47
2023-04-01T19:48:55.534Z,95915.25
2023-04-01T19:51:37.711Z,95917.84
2023-04-01T19:54:27.083Z,95915.59
2023-04-01T19:57:12.592Z,95914.00
2023-04-01T19:59:51.440Z,95924.88
2023-04-01T20:02:52.904Z,95922.84
2023-04-01T20:05:47.829Z,95927.47
2023-04-01T20:08:31.190Z,95934.97
2023-04-01T20:11:16.288Z,95942.81
2023-04-01T20:14:01.149Z,95945.19
2023-04-01T20:16:50.695Z,95940.09
2023-04-01T20:19:37.541Z,95943.59
2023-04-01T20:22:26.452Z,95941.56
2023-04-01T20:25:01.675Z,95946.06
2023-04-01T20:27:37.750Z,95953.59
2023-04-01T20:30:55.479Z,95942.03
2023-04-01T20:34:06.890Z,95951.09
2023-04-01T20:36:48.767Z,95952.25
2023-04-01T20:40:01.832Z,95961.53
2023-04-01T20:42:50.578Z,95955.31
2023-04-01T20:45:35.054Z,95963.00
2023-04-01T20:48:44.910Z,95966.06
2023-04-01T20:51:17.897Z,95957.44
2023-04-01T20:53:53.596Z,95966.41
2023-04-01T20:56:42.778Z,95962.75
2023-04-01T20:59:35.508Z,95965.00
2023-04-01T21:02:25.763Z,95965.66
2023-04-01T21:05:45.153Z,95972.25
2023-04-01T21:08:24.551Z,95973.50
2023-04-01T21:11:05.853Z,95971.56
2023-04-01T21:14:08.875Z,95972.03
2023-04-01T21:16:52.191Z,95972.97
2023-04-01T21:19:47.107Z,95979.69
2023-04-01T21:22:56.781Z,95977.63
2023-04-01T21:25:36.664Z,95990.22
2023-04-01T21:28:37.786Z,95982.75
2023-04-01T21:31:27.546Z,95981.13
2023-04-01T21:34:35.089Z,95990.91
2023-04-01T21:37:32.042Z,95982.47
2023-04-01T21:40:47.191Z,95980.72
2023-04-01T21:43:40.850Z,95991.03
2023-04-01T21:47:18.861Z,95990.56
2023-04-01T21:50:41.043Z,96002.78
2023-04-01T21:54:22.049Z,96003.63
2023-04-01T21:57:47.779Z,96001.56
2023-04-01T22:00:27.353Z,96002.44
2023-04-01T22:03:37.045Z,96006.00
2023-04-01T22:06:23.027Z,96012.41
2023-04-01T22:09:02.669Z,96013.72
2023-04-01T22:11:50.420Z,96010.88
2023-04-01T22:14:41.322Z,96012.63
2023-04-01T22:17:24.145Z,96010.69
2023-04-01T22:20:04.648Z,96014.34
2023-04-01T22:22:54.562Z,96021.84
2023-04-01T22:25:31.015Z,96016.88
2023-04-01T22:28:09.815Z,96022.00
2023-04-01T22:30:49.595Z,96028.53
2023-04-01T22:33:33.403Z,96030.47
2023-04-01T22:36:16.927Z,96025.81
2023-04-01T22:39:07.035Z,96024.72
2023-04-01T22:41:58.692Z,96032.06
2023-04-01T22:44:45.405Z,96033.34
2023-04-01T22:47:24.893Z,96035.72
2023-04-01T22:50:03.543Z,96037.34
2023-04-01T22:52:39.348Z,96038.59
2023-04-01T22:55:17.913Z,96045.66
2023-04-01T22:57:54.190Z,96039.44
2023-04-01T23:00:30.101Z,96045.50
2023-04-01T23:03:20.160Z,96049.53
2023-04-01T23:05:54.180Z,96053.69
2023-04-01T23:08:59.335Z,96059.31
2023-04-01T23:11:34.233Z,96057.38
2023-04-01T23:14:39.210Z,96060.59
2023-04-01T23:17:33.337Z,96070.97
2023-04-01T23:20:20.042Z,96071.16
2023-04-01T23:23:07.996Z,96073.38
2023-04-01T23:25:51.590Z,96067.13
2023-04-01T23:28:40.065Z,96070.97
2023-04-01T23:31:39.824Z,96071.28
2023-04-01T23:34:32.306Z,96073.69
2023-04-01T23:37:07.219Z,96069.06
2023-04-01T23:39:39.308Z,96079.63
2023-04-01T23:42:16.751Z,96084.75
2023-04-01T23:44:45.884Z,96088.63
2023-04-01T23:47:20.121Z,96099.00
2023-04-01T23:49:53.596Z,96096.09
2023-04-01T23:52:27.489Z,96097.72
2023-04-01T23:55:00.932Z,96099.50
2023-04-01T23:57:33.811Z,96093.06
